Time;durP1;ratioP1;P1;durP2;ratioP2;P2;SDS_P1;SDS_P2;PMS_P1;PMS_P2;Temp;Humidity;BMP_temperature;BMP_pressure;BME280_temperature;BME280_humidity;BME280_pressure;Samples;Min_cycle;Max_cycle;Signal;HPM_P1;HPM_P2
2021/01/31 00:00:23;;;;;;;46.40;26.42;;;;;;;-144.99;93.80;52603.00;5030244;28;20276;-73
2021/01/31 00:02:49;;;;;;;37.55;21.63;;;;;;;-144.99;92.45;52623.38;5034025;28;20295;-74
2021/01/31 00:05:16;;;;;;;33.80;18.70;;;;;;;-144.99;92.54;52582.63;5023520;28;20717;-73
2021/01/31 00:07:43;;;;;;;29.30;15.93;;;;;;;-144.99;92.60;52594.84;5033849;28;20205;-74
2021/01/31 00:10:11;;;;;;;21.55;15.88;;;;;;;-144.99;92.58;52600.97;5040529;28;20205;-75
2021/01/31 00:12:37;;;;;;;16.35;11.27;;;;;;;-144.99;92.56;52656.00;5049510;28;20279;-74
2021/01/31 00:15:05;;;;;;;19.60;11.43;;;;;;;-144.99;92.80;52617.28;5048736;28;20215;-74
2021/01/31 00:17:31;;;;;;;18.75;13.02;;;;;;;-144.99;93.76;52598.94;5053797;28;20225;-75
2021/01/31 00:19:57;;;;;;;18.98;12.82;;;;;;;-144.99;93.85;52641.72;5046065;28;20254;-75
2021/01/31 00:22:23;;;;;;;17.90;11.97;;;;;;;-144.99;93.99;52615.25;5041439;28;20309;-75
2021/01/31 00:24:53;;;;;;;21.38;12.80;;;;;;;-144.99;94.55;52615.25;5036326;28;20698;-74
2021/01/31 00:27:21;;;;;;;32.83;15.73;;;;;;;-144.99;94.34;52607.09;5035619;28;20207;-76
2021/01/31 00:29:47;;;;;;;22.27;13.10;;;;;;;-144.99;94.13;52611.16;5034972;28;20273;-74
2021/01/31 00:32:13;;;;;;;20.08;12.82;;;;;;;-144.99;94.49;52582.63;5034259;28;20248;-75
2021/01/31 00:34:39;;;;;;;22.33;13.13;;;;;;;-144.99;94.74;52631.53;5026556;28;20230;-73
2021/01/31 00:37:07;;;;;;;27.80;15.02;;;;;;;-144.99;94.20;52598.94;5034798;28;20206;-74
2021/01/31 00:39:33;;;;;;;31.20;16.48;;;;;;;-144.99;94.63;52619.31;5032608;28;20198;-74
2021/01/31 00:42:00;;;;;;;29.48;16.30;;;;;;;-144.99;94.34;52615.25;5028773;28;20218;-73
2021/01/31 00:44:26;;;;;;;26.95;16.17;;;;;;;-144.99;94.27;52651.94;5040641;28;20770;-73
2021/01/31 00:46:52;;;;;;;30.90;15.38;;;;;;;-144.99;94.51;52631.53;5029920;28;20313;-74
2021/01/31 00:49:18;;;;;;;28.60;16.35;;;;;;;-144.99;95.03;52611.16;5025028;28;20205;-75
2021/01/31 00:51:46;;;;;;;27.10;15.27;;;;;;;-144.99;95.14;52611.16;5029839;28;20541;-75
2021/01/31 00:54:12;;;;;;;25.65;13.80;;;;;;;-144.99;95.21;52611.16;5028938;28;20226;-74
2021/01/31 00:56:38;;;;;;;24.25;13.23;;;;;;;-144.99;94.93;52639.69;5025023;28;20247;-74
2021/01/31 00:59:05;;;;;;;21.70;12.90;;;;;;;-144.99;95.04;52623.38;5032602;28;20207;-74
2021/01/31 01:01:31;;;;;;;23.58;14.10;;;;;;;-144.99;94.90;52611.16;5032366;28;20191;-74
2021/01/31 01:03:57;;;;;;;21.95;13.75;;;;;;;-144.99;95.13;52588.75;5033307;28;20248;-73
2021/01/31 01:06:23;;;;;;;23.73;13.95;;;;;;;-144.99;95.13;52647.84;5031581;28;20199;-73
2021/01/31 01:08:49;;;;;;;20.40;13.48;;;;;;;-144.99;95.10;52627.47;5032431;28;20241;-73
2021/01/31 01:11:15;;;;;;;14.18;11.88;;;;;;;-144.99;95.39;52613.19;5033303;28;20210;-74
2021/01/31 01:13:41;;;;;;;19.23;12.05;;;;;;;-144.99;95.14;52619.31;5025415;28;20203;-73
2021/01/31 01:16:08;;;;;;;25.63;15.70;;;;;;;-144.99;95.27;52619.31;5032671;28;20229;-73
2021/01/31 01:18:36;;;;;;;18.38;13.77;;;;;;;-144.99;95.31;52647.84;5031983;28;20204;-73
2021/01/31 01:21:02;;;;;;;19.75;11.25;;;;;;;-144.99;95.19;52615.25;5032289;28;20393;-72
2021/01/31 01:23:28;;;;;;;18.33;11.18;;;;;;;-144.99;95.08;52607.09;5032149;28;20648;-73
2021/01/31 01:25:54;;;;;;;16.75;10.40;;;;;;;-144.99;95.18;52615.25;5030911;28;20281;-74
2021/01/31 01:28:20;;;;;;;20.05;12.52;;;;;;;-144.99;95.73;52635.63;5032504;28;20202;-74
2021/01/31 01:30:46;;;;;;;15.80;12.07;;;;;;;-144.99;95.83;52641.72;5025317;28;20206;-74
2021/01/31 01:33:13;;;;;;;16.25;11.98;;;;;;;-144.99;96.00;52617.28;5032192;28;20191;-73
2021/01/31 01:35:39;;;;;;;17.65;11.55;;;;;;;-144.99;95.93;52605.03;5023708;28;20990;-72
2021/01/31 01:38:05;;;;;;;18.73;12.73;;;;;;;-144.99;95.91;52590.78;5032804;28;20197;-73
2021/01/31 01:40:34;;;;;;;20.65;13.65;;;;;;;-144.99;95.88;52647.84;5031241;28;20251;-72
2021/01/31 01:43:00;;;;;;;18.98;11.55;;;;;;;-144.99;96.14;52615.25;5032750;28;20233;-73
2021/01/31 01:45:27;;;;;;;16.85;13.00;;;;;;;-144.99;96.40;52631.53;5032127;28;20236;-73
2021/01/31 01:47:56;;;;;;;20.63;13.07;;;;;;;-144.99;96.36;52607.09;5025660;28;20683;-73
2021/01/31 01:50:28;;;;;;;20.60;12.43;;;;;;;-144.99;96.24;52623.38;5037075;28;20202;-72
2021/01/31 01:52:58;;;;;;;21.52;14.55;;;;;;;-144.99;96.07;52613.19;5041097;28;20226;-73
2021/01/31 01:55:25;;;;;;;17.25;12.00;;;;;;;-144.99;96.24;52611.16;5042946;28;20282;-74
2021/01/31 01:57:54;;;;;;;19.70;11.43;;;;;;;-144.99;96.23;52611.16;5044871;28;20289;-74
2021/01/31 02:00:22;;;;;;;19.55;12.88;;;;;;;-144.99;96.42;52678.44;5053807;28;20185;-73
2021/01/31 02:02:55;;;;;;;18.33;12.25;;;;;;;-144.99;96.10;52570.38;5031728;28;20234;-72
2021/01/31 02:05:21;;;;;;;16.05;11.15;;;;;;;-144.99;96.02;52615.25;5031284;28;20558;-73
2021/01/31 02:07:49;;;;;;;19.30;11.27;;;;;;;-144.99;96.21;52611.16;5030561;28;20206;-73
2021/01/31 02:10:18;;;;;;;20.63;13.65;;;;;;;-144.99;95.93;52656.00;5031486;28;20200;-73
2021/01/31 02:12:45;;;;;;;16.20;12.15;;;;;;;-144.99;95.54;52627.47;5034983;28;20521;-74
2021/01/31 02:15:13;;;;;;;14.68;11.57;;;;;;;-144.99;95.46;52615.25;5030508;28;20232;-73
2021/01/31 02:17:58;;;;;;;18.38;12.23;;;;;;;-144.99;95.60;52635.63;5026662;28;20207;-74
2021/01/31 02:20:53;;;;;;;18.92;11.60;;;;;;;-144.99;95.75;52609.13;5030772;28;20791;-73
2021/01/31 02:23:49;;;;;;;19.33;11.45;;;;;;;-144.99;96.02;52625.44;5027122;28;20736;-73
2021/01/31 02:26:20;;;;;;;13.77;9.93;;;;;;;-144.99;96.07;52586.69;5020517;28;20214;-73
2021/01/31 02:29:01;;;;;;;19.48;12.38;;;;;;;-144.99;96.21;52582.63;5027786;28;20709;-74
2021/01/31 02:31:36;;;;;;;16.05;10.90;;;;;;;-144.99;96.62;52643.78;5030352;28;20595;-74
2021/01/31 02:34:07;;;;;;;15.93;11.43;;;;;;;-144.99;96.63;52647.84;5025749;28;20313;-74
2021/01/31 02:36:42;;;;;;;18.73;12.65;;;;;;;-144.99;96.91;52639.69;5028583;28;20199;-74
2021/01/31 02:39:18;;;;;;;16.75;11.02;;;;;;;-144.99;96.99;52656.00;5024515;28;20576;-74
2021/01/31 02:41:56;;;;;;;15.55;11.40;;;;;;;-144.99;96.70;52572.44;5030862;28;20313;-74
2021/01/31 02:44:26;;;;;;;15.65;11.23;;;;;;;-144.99;96.72;52598.94;5030004;28;20229;-74
2021/01/31 02:46:55;;;;;;;16.60;11.40;;;;;;;-144.99;96.69;52619.31;5028120;28;20587;-74
2021/01/31 02:49:25;;;;;;;17.58;11.10;;;;;;;-144.99;96.56;52623.38;5027447;28;20210;-75
2021/01/31 02:51:59;;;;;;;9.63;8.38;;;;;;;-144.99;96.65;52619.31;5024521;28;20198;-76
2021/01/31 02:54:31;;;;;;;16.05;10.80;;;;;;;-144.99;96.58;52611.16;5026171;28;20226;-75
2021/01/31 02:57:02;;;;;;;13.60;8.75;;;;;;;-144.99;96.73;52621.34;5027758;28;20293;-76
2021/01/31 02:59:36;;;;;;;14.40;9.85;;;;;;;-144.99;96.60;52623.38;5030505;28;20505;-75
2021/01/31 03:02:05;;;;;;;14.15;10.00;;;;;;;-144.99;96.87;52635.63;5030083;28;20228;-76
2021/01/31 03:04:37;;;;;;;14.70;10.52;;;;;;;-144.99;96.63;52621.34;5028973;28;20225;-75
2021/01/31 03:07:08;;;;;;;16.77;10.20;;;;;;;-144.99;96.26;52603.00;5022008;28;20209;-75
2021/01/31 03:09:41;;;;;;;14.65;10.15;;;;;;;-144.99;96.19;52623.38;5037527;28;20263;-74
2021/01/31 03:12:12;;;;;;;15.68;9.90;;;;;;;-144.99;96.24;52647.84;5037378;28;20214;-75
2021/01/31 03:14:42;;;;;;;15.90;10.55;;;;;;;-144.99;96.66;52635.63;5030117;28;20232;-75
2021/01/31 03:17:15;;;;;;;17.92;10.98;;;;;;;-144.99;96.83;52660.09;5036219;28;20202;-74
2021/01/31 03:19:47;;;;;;;17.58;10.63;;;;;;;-144.99;96.68;52613.19;5033521;28;20657;-75
2021/01/31 03:22:18;;;;;;;14.35;10.27;;;;;;;-144.99;97.20;52613.19;5033985;28;20241;-74
2021/01/31 03:24:50;;;;;;;18.88;11.27;;;;;;;-144.99;97.01;52603.00;5034130;28;20301;-75
2021/01/31 03:27:22;;;;;;;16.85;11.43;;;;;;;-144.99;97.19;52603.00;5024915;28;20210;-74
2021/01/31 03:29:48;;;;;;;19.15;11.60;;;;;;;-144.99;97.08;52623.38;5034770;28;20443;-74
2021/01/31 03:32:20;;;;;;;17.20;11.27;;;;;;;-144.99;97.10;52647.84;5033822;28;20190;-74
2021/01/31 03:34:53;;;;;;;16.77;12.45;;;;;;;-144.99;97.03;52631.53;5034548;28;20610;-74
2021/01/31 03:37:20;;;;;;;16.35;11.15;;;;;;;-144.99;97.28;52605.03;5032611;28;20198;-74
2021/01/31 03:39:49;;;;;;;17.58;11.45;;;;;;;-144.99;97.26;52623.38;5033574;28;20405;-74
2021/01/31 03:42:16;;;;;;;13.93;9.82;;;;;;;-144.99;97.43;52592.81;5032829;28;20651;-74
2021/01/31 03:44:44;;;;;;;18.45;10.88;;;;;;;-144.99;97.62;52615.25;5029664;28;20871;-74
2021/01/31 03:47:17;;;;;;;13.95;10.00;;;;;;;-144.99;97.60;52631.53;5029230;28;20216;-74
2021/01/31 03:49:49;;;;;;;20.58;12.32;;;;;;;-144.99;97.41;52611.16;5028807;28;20283;-74
2021/01/31 03:52:16;;;;;;;18.13;11.85;;;;;;;-144.99;97.15;52656.00;5024797;28;20199;-74
2021/01/31 03:54:44;;;;;;;16.65;10.50;;;;;;;-144.99;97.25;52590.78;5027542;28;20276;-74
2021/01/31 03:57:15;;;;;;;17.50;10.68;;;;;;;-144.99;97.48;52607.09;5023441;28;20692;-74
2021/01/31 03:59:47;;;;;;;19.27;11.80;;;;;;;-144.99;97.98;52627.47;5030442;28;20716;-73
2021/01/31 04:02:14;;;;;;;18.15;11.85;;;;;;;-144.99;98.60;52660.09;5031790;28;20260;-74
2021/01/31 04:04:44;;;;;;;19.98;11.18;;;;;;;-144.99;98.51;52627.47;5030376;28;20226;-73
2021/01/31 04:07:17;;;;;;;19.55;11.07;;;;;;;-144.99;98.43;52656.00;5027229;28;20229;-74
2021/01/31 04:09:44;;;;;;;14.65;10.70;;;;;;;-144.99;98.48;52600.97;5032949;28;20210;-74
2021/01/31 04:12:13;;;;;;;16.88;10.80;;;;;;;-144.99;98.75;52639.69;5033111;28;20198;-74
2021/01/31 04:14:49;;;;;;;19.25;12.18;;;;;;;-144.99;99.27;52615.25;5030158;28;20225;-73
2021/01/31 04:17:15;;;;;;;17.02;11.45;;;;;;;-144.99;99.66;52647.84;5033249;28;20716;-74
2021/01/31 04:19:41;;;;;;;17.92;12.60;;;;;;;-144.99;99.69;52611.16;5029537;28;20599;-74
2021/01/31 04:22:07;;;;;;;18.15;11.57;;;;;;;-144.99;99.73;52643.78;5032672;28;20309;-73
2021/01/31 04:24:34;;;;;;;19.30;12.50;;;;;;;-144.99;100.00;52603.00;5031879;28;20230;-73
2021/01/31 04:27:00;;;;;;;21.95;13.48;;;;;;;-144.99;100.00;52609.13;5032269;28;20210;-75
2021/01/31 04:29:27;;;;;;;19.88;11.98;;;;;;;-144.99;100.00;52607.09;5032554;28;20256;-75
2021/01/31 04:31:53;;;;;;;16.48;12.60;;;;;;;-144.99;100.00;52603.00;5033778;28;20187;-75
2021/01/31 04:34:19;;;;;;;20.52;11.80;;;;;;;-144.99;100.00;52625.44;5035845;28;20318;-75
2021/01/31 04:36:45;;;;;;;18.33;11.80;;;;;;;-144.99;100.00;52611.16;5031835;28;20206;-75
2021/01/31 04:39:12;;;;;;;17.17;12.10;;;;;;;-144.99;100.00;52596.88;5031804;28;20206;-74
2021/01/31 04:41:42;;;;;;;19.10;12.40;;;;;;;-144.99;100.00;52598.94;5031195;28;20201;-76
2021/01/31 04:44:12;;;;;;;21.08;12.68;;;;;;;-144.99;100.00;52611.16;5026291;28;20228;-75
2021/01/31 04:46:43;;;;;;;18.42;13.25;;;;;;;-144.99;100.00;52674.34;5030643;28;20191;-75
2021/01/31 04:49:26;;;;;;;22.40;13.30;;;;;;;-144.99;100.00;52598.94;5021809;28;20552;-75
2021/01/31 04:52:03;;;;;;;23.10;13.32;;;;;;;-144.99;100.00;52635.63;5022918;28;20252;-74
2021/01/31 04:54:48;;;;;;;21.80;12.70;;;;;;;-144.99;100.00;52611.16;5024200;28;20226;-74
2021/01/31 04:57:21;;;;;;;16.48;11.23;;;;;;;-144.99;100.00;52623.38;5023896;28;20206;-74
2021/01/31 04:59:49;;;;;;;22.10;12.63;;;;;;;-144.99;100.00;52631.53;5035073;28;20206;-73
2021/01/31 05:02:21;;;;;;;22.90;13.88;;;;;;;-144.99;100.00;52623.38;5032749;28;20218;-73
2021/01/31 05:04:50;;;;;;;18.90;13.43;;;;;;;-144.99;100.00;52625.44;5029705;28;20233;-73
2021/01/31 05:07:20;;;;;;;21.05;14.70;;;;;;;-144.99;100.00;52631.53;5026699;28;20514;-74
2021/01/31 05:09:46;;;;;;;22.77;12.98;;;;;;;-144.99;100.00;52570.38;5032015;28;20726;-73
2021/01/31 05:12:19;;;;;;;17.58;13.32;;;;;;;-144.99;100.00;52635.63;5032185;28;20574;-74
2021/01/31 05:14:57;;;;;;;18.17;12.35;;;;;;;-144.99;100.00;52582.63;5030084;28;20228;-74
2021/01/31 05:17:23;;;;;;;18.35;12.18;;;;;;;-144.99;100.00;52617.28;5030881;28;20465;-73
2021/01/31 05:19:49;;;;;;;20.83;13.30;;;;;;;-144.99;100.00;52627.47;5030428;28;20209;-74
2021/01/31 05:22:20;;;;;;;21.58;14.02;;;;;;;-144.99;100.00;52627.47;5030054;28;20226;-74
2021/01/31 05:24:47;;;;;;;23.95;14.48;;;;;;;-144.99;100.00;52637.66;5031739;28;20225;-75
2021/01/31 05:27:18;;;;;;;21.30;13.65;;;;;;;-144.99;100.00;52603.00;5030890;28;20213;-73
2021/01/31 05:29:44;;;;;;;24.10;15.18;;;;;;;-144.99;100.00;52586.69;5029895;28;20597;-73
2021/01/31 05:32:13;;;;;;;20.95;13.20;;;;;;;-144.99;100.00;52647.84;5028687;28;20199;-73
2021/01/31 05:34:41;;;;;;;23.33;14.07;;;;;;;-144.99;100.00;52627.47;5023293;28;20318;-73
2021/01/31 05:37:09;;;;;;;21.95;14.55;;;;;;;-144.99;100.00;52623.38;5031192;28;20217;-73
2021/01/31 05:39:40;;;;;;;18.75;11.73;;;;;;;-144.99;100.00;52582.63;5030409;28;20590;-72
2021/01/31 05:42:11;;;;;;;20.88;13.77;;;;;;;-144.99;100.00;52594.84;5031200;28;20313;-72
2021/01/31 05:44:38;;;;;;;24.80;14.70;;;;;;;-144.99;100.00;52619.31;5028764;28;20230;-72
2021/01/31 05:47:17;;;;;;;23.23;13.15;;;;;;;-144.99;100.00;52603.00;5027066;28;20223;-73
2021/01/31 05:49:45;;;;;;;21.45;15.40;;;;;;;-144.99;100.00;52592.81;5029997;28;20221;-72
2021/01/31 05:52:35;;;;;;;23.30;13.43;;;;;;;-144.99;100.00;52594.84;5023883;28;20201;-73
2021/01/31 05:55:16;;;;;;;23.38;14.45;;;;;;;-144.99;100.00;52609.13;5025217;28;20732;-72
2021/01/31 05:57:42;;;;;;;19.50;14.02;;;;;;;-144.99;100.00;52574.47;5033984;28;20206;-74
2021/01/31 06:00:25;;;;;;;23.13;15.77;;;;;;;-144.99;100.00;52643.78;5034860;28;20557;-74
2021/01/31 06:02:59;;;;;;;24.08;15.20;;;;;;;-144.99;100.00;52637.66;5027646;28;20311;-73
2021/01/31 06:05:25;;;;;;;25.67;14.95;;;;;;;-144.99;100.00;52639.69;5025654;28;20278;-73
2021/01/31 06:08:00;;;;;;;21.08;15.02;;;;;;;-144.99;100.00;52598.94;5035514;28;20216;-73
2021/01/31 06:10:26;;;;;;;23.02;14.52;;;;;;;-144.99;100.00;52605.03;5034686;28;20255;-74
2021/01/31 06:13:03;;;;;;;23.33;15.18;;;;;;;-144.99;100.00;52627.47;5028060;28;20676;-74
2021/01/31 06:15:38;;;;;;;24.05;17.23;;;;;;;-144.99;100.00;52580.59;5028467;28;20217;-72
2021/01/31 06:18:10;;;;;;;24.17;15.63;;;;;;;-144.99;100.00;52623.38;5029438;28;20208;-73
2021/01/31 06:20:40;;;;;;;21.13;13.98;;;;;;;-144.99;100.00;52611.16;5029672;28;20210;-73
2021/01/31 06:23:17;;;;;;;24.65;14.80;;;;;;;-144.99;100.00;52609.13;5027924;28;20226;-74
2021/01/31 06:25:43;;;;;;;22.25;14.32;;;;;;;-144.99;100.00;52627.47;5029337;28;20314;-73
2021/01/31 06:28:21;;;;;;;22.00;13.68;;;;;;;-144.99;100.00;52568.34;5030183;28;20696;-73
2021/01/31 06:31:03;;;;;;;21.83;13.40;;;;;;;-144.99;100.00;52639.69;5028350;28;20206;-73
2021/01/31 06:33:29;;;;;;;23.95;15.25;;;;;;;-144.99;100.00;52592.81;5029727;28;20574;-72
2021/01/31 06:36:05;;;;;;;23.30;16.30;;;;;;;-144.99;100.00;52635.63;5023787;28;20198;-73
2021/01/31 06:38:40;;;;;;;26.70;15.77;;;;;;;-144.99;100.00;52627.47;5033322;28;20276;-75
2021/01/31 06:41:18;;;;;;;24.30;14.70;;;;;;;-144.99;100.00;52598.94;5048934;28;20204;-74
2021/01/31 06:43:58;;;;;;;26.67;15.18;;;;;;;-144.99;100.00;52611.16;5048163;28;20699;-75
2021/01/31 06:46:33;;;;;;;23.45;16.05;;;;;;;-144.99;100.00;52623.38;5046973;28;20361;-75
2021/01/31 06:49:10;;;;;;;25.03;16.60;;;;;;;-144.99;100.00;52617.28;5046662;28;20197;-74
2021/01/31 06:51:49;;;;;;;25.38;15.65;;;;;;;-144.99;100.00;52598.94;5037507;28;20655;-74
2021/01/31 06:54:41;;;;;;;19.23;13.43;;;;;;;-144.99;100.00;52651.94;5025934;28;20230;-74
2021/01/31 06:57:34;;;;;;;21.83;14.83;;;;;;;-144.99;100.00;52639.69;5028293;28;20252;-73
2021/01/31 07:00:48;;;;;;;21.30;12.17;;;;;;;-144.99;100.00;52588.75;5022766;28;20649;-73
2021/01/31 07:03:46;;;;;;;22.42;15.75;;;;;;;-144.99;100.00;52615.25;5006021;28;20748;-73
2021/01/31 07:06:33;;;;;;;22.75;13.05;;;;;;;-144.99;100.00;52619.31;5010797;28;20233;-72
2021/01/31 07:09:18;;;;;;;25.98;14.70;;;;;;;-144.99;100.00;52615.25;5023956;28;20195;-73
2021/01/31 07:11:48;;;;;;;24.05;14.43;;;;;;;-144.99;100.00;52623.38;5033049;28;20555;-73
2021/01/31 07:14:36;;;;;;;20.88;15.38;;;;;;;-144.99;100.00;52629.50;5023759;28;20289;-73
2021/01/31 07:17:15;;;;;;;24.23;15.33;;;;;;;-144.99;100.00;52598.94;5024062;28;20248;-72
2021/01/31 07:19:49;;;;;;;25.03;14.30;;;;;;;-144.99;100.00;52590.78;5023067;28;21345;-72
2021/01/31 07:22:20;;;;;;;20.60;14.10;;;;;;;-144.99;100.00;52605.03;5030077;28;20648;-72
2021/01/31 07:24:50;;;;;;;27.77;15.80;;;;;;;-144.99;100.00;52611.16;5029332;28;20666;-74
2021/01/31 07:27:25;;;;;;;21.53;15.67;;;;;;;-144.99;100.00;52603.00;5031855;28;21155;-73
2021/01/31 07:30:03;;;;;;;22.87;16.43;;;;;;;-144.99;100.00;52619.31;5021606;28;20620;-73
2021/01/31 07:33:00;;;;;;;26.57;16.00;;;;;;;-144.99;100.00;52588.75;5048329;28;20676;-73
2021/01/31 07:35:34;;;;;;;26.20;15.67;;;;;;;-144.99;100.00;52603.00;5041979;28;20847;-73
2021/01/31 07:38:10;;;;;;;25.20;14.43;;;;;;;-144.99;100.00;52607.09;5057833;28;20692;-73
2021/01/31 07:40:36;;;;;;;16.80;13.20;;;;;;;-144.99;100.00;52619.31;5048877;28;20608;-72
2021/01/31 07:43:03;;;;;;;22.03;13.17;;;;;;;-144.99;100.00;52566.31;5032994;28;20647;-72
2021/01/31 07:45:29;;;;;;;22.63;14.03;;;;;;;-144.99;100.00;52607.09;5028877;28;20672;-72
2021/01/31 07:48:34;;;;;;;27.07;13.60;;;;;;;-144.99;100.00;52554.09;5023150;28;20642;-73
2021/01/31 07:51:04;;;;;;;20.77;12.27;;;;;;;-144.99;100.00;52607.09;5019681;28;20670;-73
2021/01/31 07:53:34;;;;;;;21.10;13.97;;;;;;;-144.99;100.00;52615.25;5018920;28;20616;-72
2021/01/31 07:56:28;;;;;;;33.43;21.73;;;;;;;-144.99;100.00;52639.69;5028169;28;20631;-73
2021/01/31 07:58:56;;;;;;;23.00;15.30;;;;;;;-144.99;100.00;52623.38;5025825;28;20617;-75
2021/01/31 08:01:45;;;;;;;21.60;13.60;;;;;;;-144.99;100.00;52619.31;5032949;28;20609;-74
2021/01/31 08:04:47;;;;;;;20.43;14.17;;;;;;;-144.99;100.00;52570.38;5028516;28;20664;-74
2021/01/31 08:07:52;;;;;;;25.50;12.90;;;;;;;-144.99;100.00;52586.69;5024194;28;20966;-74
2021/01/31 08:10:55;;;;;;;21.83;13.53;;;;;;;-144.99;100.00;52596.88;5027948;28;20735;-73
2021/01/31 08:13:42;;;;;;;25.20;13.10;;;;;;;-144.99;100.00;52566.31;5028824;28;20620;-73
2021/01/31 08:16:41;;;;;;;22.57;13.03;;;;;;;-144.99;100.00;52615.25;5026160;28;20682;-74
2021/01/31 08:19:11;;;;;;;20.47;12.63;;;;;;;-144.99;100.00;52590.78;5025385;28;21265;-73
2021/01/31 08:21:52;;;;;;;20.97;14.60;;;;;;;-144.99;100.00;52617.28;5032695;28;20613;-73
2021/01/31 08:24:54;;;;;;;19.90;13.40;;;;;;;-144.99;100.00;52651.94;5030868;28;20687;-73
2021/01/31 08:27:59;;;;;;;21.73;13.77;;;;;;;-144.99;100.00;52596.88;5028199;28;20644;-72
2021/01/31 08:30:30;;;;;;;24.83;13.67;;;;;;;-144.99;100.00;52574.47;5026221;28;20641;-72
2021/01/31 08:33:26;;;;;;;20.67;12.67;;;;;;;-144.99;100.00;52615.25;5036137;28;20666;-74
2021/01/31 08:36:07;;;;;;;23.20;12.27;;;;;;;-144.99;98.32;52586.69;5013089;28;20656;-73
2021/01/31 08:38:40;;;;;;;19.37;12.60;;;;;;;-144.99;98.44;52590.78;5033236;28;20610;-73
2021/01/31 08:41:42;;;;;;;18.03;12.97;;;;;;;-144.99;98.33;52570.38;5031955;28;20921;-74
2021/01/31 08:44:52;;;;;;;21.80;14.17;;;;;;;-144.99;98.22;52578.53;5026334;28;20668;-74
2021/01/31 08:47:18;;;;;;;27.60;16.73;;;;;;;-144.99;98.72;52578.53;5024478;28;20675;-75
2021/01/31 08:49:44;;;;;;;28.17;18.03;;;;;;;-144.99;98.73;52578.53;5027857;28;20652;-73
2021/01/31 08:52:13;;;;;;;22.23;14.23;;;;;;;-144.99;99.70;52545.94;5025108;28;20969;-73
2021/01/31 08:54:39;;;;;;;30.80;13.70;;;;;;;-144.99;99.16;52566.31;5030125;28;20680;-73
2021/01/31 08:57:08;;;;;;;23.47;13.13;;;;;;;-144.99;97.55;52582.63;5032433;28;20625;-74
2021/01/31 08:59:37;;;;;;;21.47;13.97;;;;;;;-144.99;97.69;52566.31;5031322;28;20643;-74
2021/01/31 09:02:20;;;;;;;21.53;13.30;;;;;;;-144.99;97.67;52558.16;5026188;28;20712;-74
2021/01/31 09:04:48;;;;;;;21.37;11.73;;;;;;;-144.99;96.95;52586.69;5028322;28;20648;-74
2021/01/31 09:07:22;;;;;;;17.53;11.83;;;;;;;-144.99;97.20;52607.09;5027408;28;20969;-75
2021/01/31 09:09:54;;;;;;;20.73;13.47;;;;;;;-144.99;97.41;52582.63;5031438;28;20616;-75
2021/01/31 09:12:22;;;;;;;18.13;11.23;;;;;;;-144.99;97.26;52580.59;5032661;28;20631;-74
2021/01/31 09:14:50;;;;;;;21.27;12.20;;;;;;;-144.99;96.98;52568.34;5031493;28;20650;-75
2021/01/31 09:17:24;;;;;;;22.43;11.90;;;;;;;-144.99;97.08;52586.69;5033406;28;20661;-74
2021/01/31 09:20:04;;;;;;;17.73;12.53;;;;;;;-144.99;96.51;52596.88;5031898;28;21236;-75
2021/01/31 09:22:30;;;;;;;22.73;12.73;;;;;;;-144.99;96.20;52554.09;5031265;28;20712;-75
2021/01/31 09:25:00;;;;;;;18.33;12.93;;;;;;;-144.99;96.73;52574.47;5030869;28;20659;-74
2021/01/31 09:27:27;;;;;;;19.60;12.17;;;;;;;-144.99;96.82;52619.31;5039915;28;20620;-74
2021/01/31 09:29:58;;;;;;;22.33;13.27;;;;;;;-144.99;96.68;52558.16;5031205;28;20625;-73
2021/01/31 09:32:30;;;;;;;22.57;12.87;;;;;;;-144.99;96.24;52576.50;5031276;28;20701;-73
2021/01/31 09:34:58;;;;;;;20.50;12.90;;;;;;;-144.99;96.13;52550.00;5023425;28;20641;-75
2021/01/31 09:37:27;;;;;;;21.17;12.40;;;;;;;-144.99;95.77;52562.25;5022913;28;20640;-74
2021/01/31 09:39:55;;;;;;;15.80;10.80;;;;;;;-144.99;94.74;52603.00;5030106;28;20631;-74
2021/01/31 09:42:23;;;;;;;16.03;10.60;;;;;;;-144.99;94.58;52547.97;5025446;28;20743;-74
2021/01/31 09:44:54;;;;;;;15.97;9.97;;;;;;;-144.99;94.93;52566.31;5022617;28;20656;-74
2021/01/31 09:47:22;;;;;;;16.30;9.43;;;;;;;-144.99;94.46;52570.38;5023725;28;20629;-74
2021/01/31 09:49:52;;;;;;;17.07;10.53;;;;;;;-144.99;94.34;52603.00;5029445;28;20712;-74
2021/01/31 09:52:18;;;;;;;14.57;10.13;;;;;;;-144.99;93.91;52582.63;5031171;28;20998;-75
2021/01/31 09:54:44;;;;;;;16.60;10.50;;;;;;;-144.99;93.77;52578.53;5024375;28;20784;-74
2021/01/31 09:57:21;;;;;;;17.30;10.17;;;;;;;-144.99;92.66;52550.00;5027173;28;20629;-74
2021/01/31 09:59:48;;;;;;;15.20;8.57;;;;;;;-144.99;92.71;52590.78;5039827;28;20769;-75
2021/01/31 10:02:19;;;;;;;14.00;8.80;;;;;;;-144.99;92.24;52582.63;5040780;28;20686;-74
2021/01/31 10:04:54;;;;;;;20.23;10.77;;;;;;;-144.99;92.50;52556.13;5037311;28;20687;-74
2021/01/31 10:07:30;;;;;;;15.33;9.23;;;;;;;-144.99;92.24;52570.38;5030563;28;20616;-73
2021/01/31 10:09:56;;;;;;;18.60;10.47;;;;;;;-144.99;91.63;52570.38;5014354;28;20607;-73
2021/01/31 10:12:27;;;;;;;12.20;9.03;;;;;;;-144.99;91.33;52566.31;5030124;28;20629;-75
2021/01/31 10:14:55;;;;;;;15.77;10.47;;;;;;;-144.99;91.24;52539.81;5029657;28;21084;-75
2021/01/31 10:17:34;;;;;;;16.93;10.30;;;;;;;-144.99;88.46;52533.69;5022140;28;20621;-74
2021/01/31 10:20:30;;;;;;;15.90;9.87;;;;;;;-144.99;80.33;52566.31;5028075;28;20954;-73
2021/01/31 10:23:00;;;;;;;14.37;10.20;;;;;;;-144.99;76.75;52558.16;5027224;28;20798;-73
2021/01/31 10:25:27;;;;;;;17.97;9.00;;;;;;;-144.99;76.95;52509.25;5029144;28;20752;-72
2021/01/31 10:27:56;;;;;;;16.83;10.70;;;;;;;-144.99;74.73;52488.84;5027246;28;21213;-74
2021/01/31 10:30:25;;;;;;;12.10;7.90;;;;;;;-144.99;73.25;52541.84;5029620;28;20636;-75
2021/01/31 10:32:52;;;;;;;14.10;10.10;;;;;;;-144.99;70.76;52541.84;5026808;28;20847;-73
2021/01/31 10:35:24;;;;;;;18.17;11.30;;;;;;;-144.99;71.77;52523.50;5021487;28;21191;-74
2021/01/31 10:37:51;;;;;;;13.87;9.83;;;;;;;-144.99;71.55;52511.28;5020495;28;20629;-74
2021/01/31 10:40:18;;;;;;;16.33;10.60;;;;;;;-144.99;71.23;52407.31;5024870;28;20622;-73
2021/01/31 10:42:44;;;;;;;17.17;9.80;;;;;;;-144.99;68.70;52437.91;5016961;28;20760;-72
2021/01/31 10:45:12;;;;;;;14.80;10.17;;;;;;;-144.99;63.37;52374.72;5027360;28;20740;-72
2021/01/31 10:47:39;;;;;;;15.70;10.73;;;;;;;-144.99;59.29;52384.91;5023585;28;21053;-73
2021/01/31 10:50:06;;;;;;;13.27;9.47;;;;;;;-144.99;57.80;52323.75;5025935;28;20627;-72
2021/01/31 10:52:33;;;;;;;12.37;7.87;;;;;;;-144.99;54.95;52325.81;5022772;28;20625;-72
2021/01/31 10:54:59;;;;;;;17.73;12.80;;;;;;;-144.99;51.93;52350.25;5019857;28;20650;-73
2021/01/31 10:57:28;;;;;;;11.23;8.23;;;;;;;-144.99;49.67;52401.22;5031577;28;20640;-72
2021/01/31 10:59:54;;;;;;;11.47;8.43;;;;;;;-144.99;49.22;52439.94;5025351;28;20623;-73
2021/01/31 11:02:20;;;;;;;14.80;7.17;;;;;;;-144.99;52.02;52509.25;5026541;28;20636;-73
2021/01/31 11:04:46;;;;;;;13.17;7.47;;;;;;;-144.99;55.10;52517.41;5026078;28;20722;-73
2021/01/31 11:07:12;;;;;;;12.17;7.40;;;;;;;-144.99;57.38;52517.41;5022744;28;20636;-74
2021/01/31 11:09:38;;;;;;;13.83;8.70;;;;;;;-144.99;58.64;52521.47;5025606;28;20640;-73
2021/01/31 11:12:05;;;;;;;11.43;8.50;;;;;;;-144.99;59.90;52521.47;5028941;28;20724;-73
2021/01/31 11:14:32;;;;;;;11.53;8.33;;;;;;;-144.99;61.60;52476.63;5029021;28;20652;-73
2021/01/31 11:17:00;;;;;;;12.43;8.77;;;;;;;-144.99;62.79;52429.75;5023497;28;20711;-75
2021/01/31 11:19:26;;;;;;;13.40;9.40;;;;;;;-144.99;61.65;52464.41;5025685;28;21017;-74
2021/01/31 11:21:52;;;;;;;11.57;8.43;;;;;;;-144.99;62.13;52472.56;5028616;28;20634;-74